createdAt,value
2023-06-18T00:01:36.511Z,20.95
2023-06-18T00:03:38.612Z,13.55
2023-06-18T00:05:41.008Z,12.93
2023-06-18T00:07:43.173Z,15.57
2023-06-18T00:09:45.439Z,16.25
2023-06-18T00:11:47.821Z,15.55
2023-06-18T00:13:50.070Z,12.70
2023-06-18T00:15:52.646Z,14.65
2023-06-18T00:17:55.108Z,14.43
2023-06-18T00:19:57.336Z,12.68
2023-06-18T00:22:00.671Z,11.43
2023-06-18T00:24:03.385Z,10.70
2023-06-18T00:26:06.242Z,17.85
2023-06-18T00:28:08.457Z,13.18
2023-06-18T00:30:11.255Z,12.18
2023-06-18T00:32:13.378Z,19.45
2023-06-18T00:34:16.355Z,16.40
2023-06-18T00:36:21.067Z,16.13
2023-06-18T00:38:23.107Z,15.52
2023-06-18T00:40:25.497Z,16.10
2023-06-18T00:42:29.996Z,16.35
2023-06-18T00:44:32.223Z,19.45
2023-06-18T00:46:36.816Z,13.55
2023-06-18T00:48:39.126Z,21.48
2023-06-18T00:50:42.238Z,18.25
2023-06-18T00:52:49.327Z,18.33
2023-06-18T00:54:51.997Z,19.00
2023-06-18T00:56:54.344Z,18.50
2023-06-18T00:58:58.750Z,20.10
2023-06-18T01:01:01.145Z,17.98
2023-06-18T01:03:06.861Z,20.95
2023-06-18T01:05:10.767Z,15.90
2023-06-18T01:07:15.773Z,17.35
2023-06-18T01:09:24.971Z,17.40
2023-06-18T01:11:30.634Z,18.90
2023-06-18T01:13:37.887Z,15.48
2023-06-18T01:15:40.445Z,18.08
2023-06-18T01:17:47.902Z,16.75
2023-06-18T01:20:11.569Z,16.38
2023-06-18T01:22:28.401Z,18.30
2023-06-18T01:24:33.842Z,20.52
2023-06-18T01:26:36.971Z,20.95
2023-06-18T01:28:41.557Z,19.80
2023-06-18T01:30:43.936Z,16.42
2023-06-18T01:32:46.356Z,17.50
2023-06-18T01:34:49.174Z,16.67
2023-06-18T01:37:06.773Z,16.85
2023-06-18T01:39:26.371Z,16.17
2023-06-18T01:41:32.838Z,15.70
2023-06-18T01:43:43.393Z,14.20
2023-06-18T01:45:47.185Z,18.13
2023-06-18T01:47:52.064Z,16.00
2023-06-18T01:49:56.946Z,17.33
2023-06-18T01:52:03.917Z,20.08
2023-06-18T01:54:08.046Z,19.00
2023-06-18T01:56:10.767Z,14.25
2023-06-18T01:58:14.969Z,17.55
2023-06-18T02:00:17.108Z,15.38
2023-06-18T02:02:19.271Z,17.52
2023-06-18T02:04:21.590Z,17.50
2023-06-18T02:06:23.630Z,16.55
2023-06-18T02:08:27.546Z,15.60
2023-06-18T02:10:29.500Z,18.52
2023-06-18T02:12:31.458Z,18.42
2023-06-18T02:14:33.593Z,18.92
2023-06-18T02:16:35.768Z,17.17
2023-06-18T02:18:37.804Z,17.30
2023-06-18T02:20:41.177Z,22.73
2023-06-18T02:22:43.406Z,17.38
2023-06-18T02:24:45.439Z,21.40
2023-06-18T02:26:47.498Z,17.35
2023-06-18T02:28:49.595Z,19.00
2023-06-18T02:30:51.550Z,23.65
2023-06-18T02:32:54.288Z,19.23
2023-06-18T02:34:56.772Z,19.60
2023-06-18T02:36:58.710Z,19.60
2023-06-18T02:39:00.760Z,20.55
2023-06-18T02:41:02.861Z,20.13
2023-06-18T02:43:07.231Z,15.88
2023-06-18T02:45:10.001Z,21.95
2023-06-18T02:47:12.045Z,22.00
2023-06-18T02:49:14.278Z,17.02
2023-06-18T02:51:16.493Z,16.77
2023-06-18T02:53:18.614Z,18.02
2023-06-18T02:55:21.473Z,17.17
2023-06-18T02:57:23.763Z,19.08
2023-06-18T02:59:26.185Z,20.88
2023-06-18T03:01:29.698Z,16.83
2023-06-18T03:03:33.205Z,14.75
2023-06-18T03:05:35.277Z,17.73
2023-06-18T03:07:38.777Z,18.02
2023-06-18T03:09:40.942Z,15.50
2023-06-18T03:11:43.090Z,16.80
2023-06-18T03:13:45.380Z,20.75
2023-06-18T03:15:47.590Z,24.98
2023-06-18T03:17:49.665Z,23.20
2023-06-18T03:19:51.890Z,24.92
2023-06-18T03:21:54.448Z,24.50
2023-06-18T03:23:56.687Z,19.58
2023-06-18T03:25:58.927Z,26.48
2023-06-18T03:28:00.998Z,21.25
2023-06-18T03:30:05.675Z,27.45
2023-06-18T03:32:08.493Z,24.67
2023-06-18T03:34:10.736Z,23.58
2023-06-18T03:36:16.989Z,24.55
2023-06-18T03:38:19.266Z,23.85
2023-06-18T03:40:22.343Z,24.80
2023-06-18T03:42:25.527Z,27.98
2023-06-18T03:44:27.550Z,23.85
2023-06-18T03:46:29.808Z,24.40
2023-06-18T03:48:32.418Z,25.83
2023-06-18T03:50:34.521Z,24.67
2023-06-18T03:52:36.548Z,25.80
2023-06-18T03:54:39.831Z,27.35
2023-06-18T03:56:42.524Z,27.73
2023-06-18T03:58:45.323Z,26.10
2023-06-18T04:00:47.809Z,25.40
2023-06-18T04:02:49.956Z,26.70
2023-06-18T04:04:52.209Z,24.23
2023-06-18T04:06:54.438Z,23.15
2023-06-18T04:08:56.612Z,22.30
2023-06-18T04:10:59.576Z,28.80
2023-06-18T04:13:01.979Z,25.88
2023-06-18T04:15:04.792Z,24.70
2023-06-18T04:17:07.226Z,21.95
2023-06-18T04:19:09.327Z,24.58
2023-06-18T04:21:11.389Z,22.42
2023-06-18T04:23:14.432Z,27.38
2023-06-18T04:25:16.898Z,22.52
2023-06-18T04:27:18.990Z,23.45
2023-06-18T04:29:21.112Z,23.50
2023-06-18T04:31:23.253Z,27.13
2023-06-18T04:33:26.010Z,21.60
2023-06-18T04:35:27.952Z,22.65
2023-06-18T04:37:31.339Z,25.02
2023-06-18T04:39:33.319Z,24.17
2023-06-18T04:41:35.309Z,27.88
2023-06-18T04:43:37.301Z,28.42
2023-06-18T04:45:39.293Z,23.63
2023-06-18T04:47:42.009Z,26.05
2023-06-18T04:49:45.144Z,21.77
2023-06-18T04:51:47.145Z,22.20
2023-06-18T04:53:49.058Z,21.38
2023-06-18T04:55:51.040Z,23.50
2023-06-18T04:57:53.152Z,23.75
2023-06-18T04:59:55.859Z,22.10
2023-06-18T05:01:57.766Z,20.85
2023-06-18T05:03:59.730Z,23.02
2023-06-18T05:06:01.832Z,25.17
2023-06-18T05:08:03.940Z,22.27
2023-06-18T05:10:06.986Z,25.25
2023-06-18T05:12:09.940Z,28.58
2023-06-18T05:14:12.038Z,24.83
2023-06-18T05:16:14.301Z,26.70
2023-06-18T05:18:16.474Z,26.40
2023-06-18T05:20:18.822Z,24.50
2023-06-18T05:22:21.042Z,23.58
2023-06-18T05:24:23.106Z,25.20
2023-06-18T05:26:25.903Z,26.50
2023-06-18T05:28:27.973Z,24.48
2023-06-18T05:30:30.134Z,25.10
2023-06-18T05:32:32.239Z,24.65
2023-06-18T05:34:34.609Z,25.40
2023-06-18T05:36:36.693Z,25.23
2023-06-18T05:38:38.883Z,24.60
2023-06-18T05:40:41.006Z,25.00
2023-06-18T05:42:43.597Z,22.75
2023-06-18T05:44:46.406Z,23.58
2023-06-18T05:46:48.600Z,22.55
2023-06-18T05:48:50.777Z,22.35
2023-06-18T05:50:53.176Z,19.92
2023-06-18T05:52:55.406Z,21.35
2023-06-18T05:54:57.685Z,24.17
2023-06-18T05:57:01.807Z,20.52
2023-06-18T05:59:03.875Z,22.33
2023-06-18T06:01:05.992Z,27.48
2023-06-18T06:03:08.187Z,20.98
2023-06-18T06:05:10.559Z,29.02
2023-06-18T06:07:12.606Z,22.30
2023-06-18T06:09:14.815Z,23.52
2023-06-18T06:11:17.157Z,21.20
2023-06-18T06:13:19.273Z,24.98
2023-06-18T06:15:21.415Z,21.08
2023-06-18T06:17:23.493Z,20.00
2023-06-18T06:19:26.819Z,20.83
2023-06-18T06:21:29.077Z,18.77
2023-06-18T06:23:33.147Z,19.98
2023-06-18T06:25:35.444Z,19.90
2023-06-18T06:27:39.396Z,20.50
2023-06-18T06:29:41.475Z,19.35
2023-06-18T06:31:43.593Z,21.85
2023-06-18T06:33:46.157Z,21.33
2023-06-18T06:35:48.278Z,21.15
2023-06-18T06:37:50.422Z,22.02
2023-06-18T06:39:52.568Z,23.60
2023-06-18T06:41:55.021Z,18.85
2023-06-18T06:43:57.121Z,24.80
2023-06-18T06:45:59.442Z,20.80
2023-06-18T06:48:01.569Z,19.48
2023-06-18T06:50:03.947Z,18.05
2023-06-18T06:52:06.573Z,19.98
2023-06-18T06:54:10.608Z,19.75
2023-06-18T06:56:13.650Z,18.00
2023-06-18T06:58:16.307Z,22.05
2023-06-18T07:00:18.788Z,19.08
2023-06-18T07:02:21.086Z,20.02
2023-06-18T07:04:23.244Z,20.35
2023-06-18T07:06:25.423Z,20.58
2023-06-18T07:08:27.636Z,18.10
2023-06-18T07:10:30.313Z,19.58
2023-06-18T07:12:33.093Z,17.85
2023-06-18T07:14:35.403Z,15.45
2023-06-18T07:16:37.617Z,16.73
2023-06-18T07:18:39.856Z,13.20
2023-06-18T07:20:42.060Z,13.65
2023-06-18T07:22:44.356Z,15.73
2023-06-18T07:24:46.525Z,12.48
2023-06-18T07:26:49.025Z,12.25
2023-06-18T07:28:51.219Z,15.38
2023-06-18T07:30:53.497Z,16.52
2023-06-18T07:32:55.811Z,22.77
2023-06-18T07:34:57.954Z,12.75
2023-06-18T07:37:00.244Z,14.75
2023-06-18T07:39:02.808Z,16.63
2023-06-18T07:41:04.943Z,15.63
2023-06-18T07:43:07.276Z,15.65
2023-06-18T07:45:09.866Z,14.15
2023-06-18T07:47:11.903Z,12.57
2023-06-18T07:49:14.297Z,13.02
2023-06-18T07:51:16.568Z,12.80
2023-06-18T07:53:18.726Z,11.55
2023-06-18T07:55:21.199Z,13.60
2023-06-18T07:57:23.418Z,13.95
2023-06-18T07:59:27.085Z,12.15
2023-06-18T08:01:29.413Z,15.07
2023-06-18T08:03:31.616Z,12.45
2023-06-18T08:05:34.127Z,13.13
2023-06-18T08:07:36.906Z,12.80
2023-06-18T08:09:39.101Z,13.75
2023-06-18T08:11:41.392Z,15.00
2023-06-18T08:13:43.576Z,14.15
2023-06-18T08:15:45.790Z,12.95
2023-06-18T08:17:48.097Z,15.23
2023-06-18T08:19:51.089Z,12.85
2023-06-18T08:21:54.466Z,18.45
2023-06-18T08:23:57.650Z,17.70
2023-06-18T08:25:59.746Z,15.43
2023-06-18T08:28:01.972Z,13.48
2023-06-18T08:30:06.416Z,14.05
2023-06-18T08:32:09.318Z,18.42
2023-06-18T08:34:11.566Z,14.80
2023-06-18T08:36:13.827Z,15.57
2023-06-18T08:38:16.033Z,14.77
2023-06-18T08:40:25.332Z,15.00
2023-06-18T08:42:28.582Z,16.02
2023-06-18T08:44:31.852Z,16.45
2023-06-18T08:46:36.894Z,12.43
2023-06-18T08:48:46.617Z,12.70
2023-06-18T08:50:54.872Z,15.38
2023-06-18T08:53:06.306Z,16.35
2023-06-18T08:55:10.525Z,15.85
2023-06-18T08:57:17.778Z,14.23
2023-06-18T08:59:20.639Z,16.10
2023-06-18T09:01:24.715Z,15.10
2023-06-18T09:03:27.095Z,16.77
2023-06-18T09:05:29.494Z,15.30
2023-06-18T09:07:31.970Z,15.43
2023-06-18T09:09:34.226Z,12.30
2023-06-18T09:11:37.646Z,13.60
2023-06-18T09:13:43.007Z,13.30
2023-06-18T09:15:45.323Z,18.00
2023-06-18T09:17:52.724Z,16.58
2023-06-18T09:19:56.284Z,15.98
2023-06-18T09:22:13.308Z,14.75
2023-06-18T09:24:19.801Z,13.70
2023-06-18T09:26:22.177Z,13.38
2023-06-18T09:28:26.014Z,12.25
2023-06-18T09:30:28.645Z,15.23
2023-06-18T09:32:30.753Z,13.40
2023-06-18T09:34:33.086Z,78.28
2023-06-18T09:36:37.927Z,81.15
2023-06-18T09:38:42.923Z,50.42
2023-06-18T09:40:45.014Z,20.33
2023-06-18T09:42:47.928Z,23.10
2023-06-18T09:44:50.797Z,19.92
2023-06-18T09:46:58.113Z,12.20
2023-06-18T09:49:02.212Z,13.18
2023-06-18T09:51:06.149Z,14.63
2023-06-18T09:53:19.344Z,12.65
2023-06-18T09:55:32.695Z,16.17
2023-06-18T09:57:50.787Z,12.40
2023-06-18T10:00:11.586Z,13.27
2023-06-18T10:02:25.318Z,14.30
2023-06-18T10:04:27.777Z,13.25
2023-06-18T10:06:31.717Z,13.43
2023-06-18T10:08:35.346Z,11.93
2023-06-18T10:10:41.868Z,12.80
2023-06-18T10:12:49.483Z,18.58
2023-06-18T10:14:55.425Z,14.30
2023-06-18T10:17:13.086Z,10.95
2023-06-18T10:19:24.590Z,18.33
2023-06-18T10:21:29.964Z,13.88
2023-06-18T10:23:34.768Z,12.25
2023-06-18T10:25:38.135Z,11.05
2023-06-18T10:27:40.559Z,12.25
2023-06-18T10:29:43.719Z,15.45
2023-06-18T10:31:47.082Z,12.20
2023-06-18T10:33:49.659Z,12.15
2023-06-18T10:35:52.586Z,11.55
2023-06-18T10:37:55.132Z,12.85
2023-06-18T10:39:57.646Z,10.00
2023-06-18T10:42:13.028Z,13.07
2023-06-18T10:44:15.264Z,11.85
2023-06-18T10:46:18.111Z,9.13
2023-06-18T10:48:21.415Z,10.60
2023-06-18T10:50:24.990Z,13.50
2023-06-18T10:52:30.315Z,8.55
2023-06-18T10:54:32.803Z,7.00
2023-06-18T10:56:37.907Z,8.95
2023-06-18T10:58:42.283Z,9.02
2023-06-18T11:00:45.551Z,8.50
2023-06-18T11:02:51.655Z,11.73
2023-06-18T11:04:54.825Z,8.40
2023-06-18T11:07:16.015Z,8.27
2023-06-18T11:09:18.143Z,9.23
2023-06-18T11:11:25.117Z,5.30
2023-06-18T11:13:35.685Z,7.32
2023-06-18T11:15:53.538Z,9.45
2023-06-18T11:17:56.917Z,7.07
2023-06-18T11:20:00.127Z,7.72
2023-06-18T11:22:02.295Z,8.15
2023-06-18T11:24:05.952Z,8.68
2023-06-18T11:26:08.237Z,6.85
2023-06-18T11:28:11.491Z,8.88
2023-06-18T11:30:15.250Z,11.70
2023-06-18T11:32:18.147Z,9.00
2023-06-18T11:34:20.251Z,9.73
2023-06-18T11:36:22.601Z,8.50
2023-06-18T11:38:26.714Z,7.15
2023-06-18T11:40:28.821Z,8.77
2023-06-18T11:42:31.615Z,7.88
2023-06-18T11:44:33.750Z,9.38
2023-06-18T11:46:38.272Z,9.65
2023-06-18T11:48:40.489Z,7.93
2023-06-18T11:50:42.808Z,7.30
2023-06-18T11:52:46.501Z,8.95
2023-06-18T11:54:50.044Z,8.43
2023-06-18T11:56:55.316Z,8.10
2023-06-18T11:58:59.165Z,6.97
2023-06-18T12:01:01.339Z,8.38
2023-06-18T12:03:03.880Z,10.75
2023-06-18T12:05:07.068Z,9.68
2023-06-18T12:07:09.641Z,8.48
2023-06-18T12:09:12.389Z,7.63
2023-06-18T12:11:25.359Z,7.32
2023-06-18T12:13:39.249Z,7.65
2023-06-18T12:15:51.984Z,8.82
2023-06-18T12:17:57.139Z,7.47
2023-06-18T12:20:11.226Z,8.15
2023-06-18T12:22:14.634Z,9.68
2023-06-18T12:24:17.063Z,11.85
2023-06-18T12:26:19.612Z,12.18
2023-06-18T12:28:25.676Z,6.95
2023-06-18T12:30:30.272Z,10.88
2023-06-18T12:32:32.370Z,8.80
2023-06-18T12:34:35.847Z,8.15
2023-06-18T12:36:37.956Z,9.75
2023-06-18T12:38:41.474Z,9.07
2023-06-18T12:40:51.598Z,6.15
2023-06-18T12:42:54.420Z,6.72
2023-06-18T12:44:57.928Z,8.23
2023-06-18T12:47:00.818Z,4.95
2023-06-18T12:49:05.257Z,6.57
2023-06-18T12:51:08.549Z,6.15
2023-06-18T12:53:18.113Z,7.30
2023-06-18T12:55:23.043Z,7.68
2023-06-18T12:57:28.934Z,8.82
2023-06-18T12:59:31.143Z,7.55
2023-06-18T13:01:33.496Z,5.88
2023-06-18T13:03:36.820Z,5.63
2023-06-18T13:05:39.057Z,6.80
2023-06-18T13:07:53.934Z,8.65
2023-06-18T13:09:56.215Z,7.28
2023-06-18T13:11:58.456Z,5.63
2023-06-18T13:14:01.885Z,6.00
2023-06-18T13:16:04.382Z,7.07
2023-06-18T13:18:07.445Z,5.28
2023-06-18T13:20:11.097Z,9.32
2023-06-18T13:22:14.111Z,7.47
2023-06-18T13:24:16.372Z,6.07
2023-06-18T13:26:20.096Z,7.47
2023-06-18T13:28:22.616Z,5.53
2023-06-18T13:30:25.320Z,4.65
2023-06-18T13:32:27.748Z,5.28
2023-06-18T13:34:29.885Z,9.57
2023-06-18T13:36:32.698Z,6.57
2023-06-18T13:38:35.304Z,7.38
2023-06-18T13:40:37.509Z,7.95
2023-06-18T13:42:39.797Z,6.80
2023-06-18T13:44:42.925Z,4.85
2023-06-18T13:46:45.232Z,7.70
2023-06-18T13:48:47.438Z,7.68
2023-06-18T13:50:49.602Z,5.38
2023-06-18T13:52:51.884Z,5.57
2023-06-18T13:54:53.988Z,7.07
2023-06-18T13:56:56.595Z,5.90
2023-06-18T13:58:58.972Z,6.65
2023-06-18T14:01:01.168Z,6.40
2023-06-18T14:03:04.390Z,6.38
2023-06-18T14:05:08.048Z,9.63
2023-06-18T14:07:11.204Z,6.80
2023-06-18T14:09:16.866Z,5.75
2023-06-18T14:11:20.893Z,8.02
2023-06-18T14:13:24.893Z,7.18
2023-06-18T14:15:27.988Z,6.00
2023-06-18T14:17:30.189Z,6.30
2023-06-18T14:19:32.380Z,6.55
2023-06-18T14:21:34.537Z,5.35
2023-06-18T14:23:37.342Z,7.35
2023-06-18T14:25:40.526Z,9.25
2023-06-18T14:27:42.955Z,5.38
2023-06-18T14:29:45.186Z,7.03
2023-06-18T14:31:47.385Z,8.95
2023-06-18T14:33:55.940Z,10.02
2023-06-18T14:36:06.446Z,7.63
2023-06-18T14:38:08.707Z,7.50
2023-06-18T14:40:11.825Z,9.38
2023-06-18T14:42:13.919Z,6.72
2023-06-18T14:44:16.593Z,10.93
2023-06-18T14:46:19.936Z,8.23
2023-06-18T14:48:22.135Z,6.95
2023-06-18T14:50:24.388Z,10.57
2023-06-18T14:52:26.574Z,7.90
2023-06-18T14:54:28.857Z,7.07
2023-06-18T14:56:32.144Z,8.98
2023-06-18T14:58:34.472Z,8.70
2023-06-18T15:00:37.330Z,7.88
2023-06-18T15:02:39.866Z,8.90
2023-06-18T15:04:42.649Z,6.25
2023-06-18T15:06:47.037Z,9.98
2023-06-18T15:08:49.775Z,8.23
2023-06-18T15:10:52.226Z,6.45
2023-06-18T15:12:54.785Z,8.10
2023-06-18T15:14:57.006Z,9.82
2023-06-18T15:16:59.203Z,14.18
2023-06-18T15:19:01.410Z,9.02
2023-06-18T15:21:03.732Z,8.68
2023-06-18T15:23:06.947Z,7.43
2023-06-18T15:25:09.679Z,8.73
2023-06-18T15:27:13.187Z,9.90
2023-06-18T15:29:16.925Z,7.85
2023-06-18T15:31:20.698Z,7.30
2023-06-18T15:33:24.944Z,7.03
2023-06-18T15:35:27.417Z,12.82
2023-06-18T15:37:29.565Z,8.77
2023-06-18T15:39:31.683Z,10.15
2023-06-18T15:41:34.266Z,7.97
2023-06-18T15:43:36.505Z,8.55
2023-06-18T15:45:38.810Z,9.20
2023-06-18T15:47:41.233Z,9.02
2023-06-18T15:49:43.407Z,7.57
2023-06-18T15:51:45.833Z,9.95
2023-06-18T15:53:47.986Z,10.75
2023-06-18T15:55:50.638Z,8.13
2023-06-18T15:57:52.948Z,8.77
2023-06-18T15:59:55.118Z,9.98
2023-06-18T16:01:57.415Z,8.68
2023-06-18T16:03:59.766Z,9.88
2023-06-18T16:06:02.004Z,10.57
2023-06-18T16:08:04.617Z,8.80
2023-06-18T16:10:07.957Z,10.82
2023-06-18T16:12:10.484Z,9.05
2023-06-18T16:14:12.817Z,9.80
2023-06-18T16:16:14.969Z,13.00
2023-06-18T16:18:19.295Z,12.25
2023-06-18T16:20:22.334Z,21.08
2023-06-18T16:22:24.507Z,18.42
2023-06-18T16:24:27.172Z,9.95
2023-06-18T16:26:29.797Z,13.88
2023-06-18T16:28:32.848Z,15.63
2023-06-18T16:30:35.057Z,11.80
2023-06-18T16:32:37.359Z,15.60
2023-06-18T16:34:39.956Z,15.68
2023-06-18T16:36:44.964Z,18.75
2023-06-18T16:38:47.400Z,13.63
2023-06-18T16:40:49.813Z,12.82
2023-06-18T16:42:52.845Z,16.65
2023-06-18T16:44:55.128Z,11.25
2023-06-18T16:46:58.203Z,12.90
2023-06-18T16:49:00.403Z,14.15
2023-06-18T16:51:03.073Z,11.52
2023-06-18T16:53:05.685Z,14.93
2023-06-18T16:55:08.823Z,15.60
2023-06-18T16:57:10.957Z,13.10
2023-06-18T16:59:13.190Z,16.20
2023-06-18T17:01:15.567Z,12.52
2023-06-18T17:03:17.942Z,13.85
2023-06-18T17:05:20.411Z,18.85
2023-06-18T17:07:22.755Z,14.85
2023-06-18T17:09:25.090Z,17.00
2023-06-18T17:11:28.783Z,18.83
2023-06-18T17:13:33.432Z,19.65
2023-06-18T17:15:35.717Z,15.50
2023-06-18T17:17:38.065Z,14.68
2023-06-18T17:19:40.300Z,15.73
2023-06-18T17:21:42.694Z,19.25
2023-06-18T17:23:44.885Z,16.58
2023-06-18T17:25:47.124Z,14.10
2023-06-18T17:27:50.683Z,13.77
2023-06-18T17:29:53.288Z,14.73
2023-06-18T17:31:55.509Z,19.17
2023-06-18T17:33:58.164Z,14.15
2023-06-18T17:36:03.612Z,16.40
2023-06-18T17:38:07.918Z,14.18
2023-06-18T17:40:11.290Z,14.98
2023-06-18T17:42:13.958Z,15.48
2023-06-18T17:44:16.927Z,16.27
2023-06-18T17:46:19.455Z,16.42
2023-06-18T17:48:21.569Z,20.50
2023-06-18T17:50:23.860Z,13.70
2023-06-18T17:52:26.107Z,17.15
2023-06-18T17:54:28.579Z,20.17
2023-06-18T17:56:33.535Z,15.98
2023-06-18T17:58:36.632Z,19.50
2023-06-18T18:00:38.940Z,19.20
2023-06-18T18:02:41.523Z,20.88
2023-06-18T18:04:44.194Z,16.52
2023-06-18T18:06:46.967Z,17.33
2023-06-18T18:08:49.989Z,21.95
2023-06-18T18:10:52.099Z,17.88
2023-06-18T18:12:54.439Z,15.57
2023-06-18T18:14:57.622Z,17.48
2023-06-18T18:17:01.421Z,17.05
2023-06-18T18:19:03.782Z,15.43
2023-06-18T18:21:05.980Z,18.80
2023-06-18T18:23:08.145Z,15.80
2023-06-18T18:25:12.221Z,16.00
2023-06-18T18:27:14.578Z,15.75
2023-06-18T18:29:17.384Z,17.52
2023-06-18T18:31:19.737Z,13.55
2023-06-18T18:33:21.919Z,13.95
2023-06-18T18:35:24.392Z,11.77
2023-06-18T18:37:28.315Z,13.15
2023-06-18T18:39:30.538Z,15.10
2023-06-18T18:41:32.795Z,13.73
2023-06-18T18:43:35.367Z,13.48
2023-06-18T18:45:37.593Z,15.80
2023-06-18T18:47:39.876Z,20.42
2023-06-18T18:49:42.221Z,16.15
2023-06-18T18:51:44.436Z,16.80
2023-06-18T18:53:51.454Z,15.20
2023-06-18T18:55:55.357Z,19.08
2023-06-18T18:57:57.541Z,16.05
2023-06-18T18:59:59.771Z,18.65
2023-06-18T19:02:02.084Z,18.55
2023-06-18T19:04:04.449Z,17.10
2023-06-18T19:06:06.641Z,16.60
2023-06-18T19:08:08.882Z,17.25
2023-06-18T19:10:12.306Z,14.05
2023-06-18T19:12:14.596Z,18.52
2023-06-18T19:14:16.762Z,17.90
2023-06-18T19:16:19.162Z,19.00
2023-06-18T19:18:21.755Z,17.23
2023-06-18T19:20:24.242Z,15.00
2023-06-18T19:22:33.239Z,18.08
2023-06-18T19:24:35.859Z,15.02
2023-06-18T19:26:38.378Z,14.73
2023-06-18T19:28:40.560Z,14.63
2023-06-18T19:30:42.986Z,15.55
2023-06-18T19:32:45.392Z,14.43
2023-06-18T19:34:48.605Z,14.23
2023-06-18T19:36:51.358Z,15.93
2023-06-18T19:38:53.656Z,15.20
2023-06-18T19:40:56.003Z,14.30
2023-06-18T19:42:58.298Z,17.77
2023-06-18T19:45:00.625Z,16.23
2023-06-18T19:47:03.132Z,15.23
2023-06-18T19:49:05.268Z,14.80
2023-06-18T19:51:07.419Z,15.95
2023-06-18T19:53:09.543Z,16.00
2023-06-18T19:55:11.795Z,16.90
2023-06-18T19:57:13.975Z,17.67
2023-06-18T19:59:16.317Z,18.25
2023-06-18T20:01:18.672Z,17.17
2023-06-18T20:03:22.716Z,19.48
2023-06-18T20:05:24.990Z,17.85
2023-06-18T20:07:27.273Z,18.73
2023-06-18T20:09:34.627Z,19.33
2023-06-18T20:11:36.944Z,17.45
2023-06-18T20:13:39.114Z,19.35
2023-06-18T20:15:45.985Z,20.48
2023-06-18T20:17:49.623Z,22.10
2023-06-18T20:19:52.620Z,21.25
2023-06-18T20:21:54.770Z,21.70
2023-06-18T20:23:56.997Z,20.80
2023-06-18T20:25:59.233Z,19.50
2023-06-18T20:28:01.652Z,19.05
2023-06-18T20:30:04.196Z,16.08
2023-06-18T20:32:07.839Z,19.05
2023-06-18T20:34:10.169Z,14.32
2023-06-18T20:36:12.329Z,14.40
2023-06-18T20:38:14.725Z,12.63
2023-06-18T20:40:17.095Z,17.98
2023-06-18T20:42:19.558Z,17.85
2023-06-18T20:44:21.885Z,17.98
2023-06-18T20:46:24.810Z,14.55
2023-06-18T20:48:28.212Z,14.07
2023-06-18T20:50:30.969Z,12.45
2023-06-18T20:52:33.397Z,17.15
2023-06-18T20:54:35.504Z,15.80
2023-06-18T20:56:37.697Z,16.52
2023-06-18T20:58:40.662Z,15.57
2023-06-18T21:00:43.128Z,15.65
2023-06-18T21:02:45.309Z,13.90
2023-06-18T21:04:47.586Z,15.10
2023-06-18T21:06:50.026Z,13.95
2023-06-18T21:08:52.624Z,14.63
2023-06-18T21:10:54.944Z,13.23
2023-06-18T21:12:57.209Z,14.00
2023-06-18T21:14:59.775Z,12.20
2023-06-18T21:17:03.599Z,12.18
2023-06-18T21:19:06.023Z,14.60
2023-06-18T21:21:08.365Z,13.80
2023-06-18T21:23:10.558Z,16.20
2023-06-18T21:25:13.497Z,16.75
2023-06-18T21:27:15.771Z,17.08
2023-06-18T21:29:18.092Z,16.48
2023-06-18T21:31:20.424Z,18.83
2023-06-18T21:33:22.684Z,15.88
2023-06-18T21:35:25.214Z,18.05
2023-06-18T21:37:27.553Z,18.75
2023-06-18T21:39:29.968Z,17.40
2023-06-18T21:41:33.081Z,19.80
2023-06-18T21:43:35.180Z,16.88
2023-06-18T21:45:37.755Z,17.88
2023-06-18T21:47:41.369Z,19.85
2023-06-18T21:49:43.799Z,18.98
2023-06-18T21:51:46.590Z,19.35
2023-06-18T21:53:50.164Z,19.05
2023-06-18T21:55:53.490Z,21.25
2023-06-18T21:57:55.775Z,20.05
2023-06-18T21:59:58.656Z,19.42
2023-06-18T22:02:00.848Z,21.02
2023-06-18T22:04:03.231Z,21.58
2023-06-18T22:06:07.931Z,19.33
2023-06-18T22:08:23.800Z,23.70
2023-06-18T22:10:27.413Z,23.17
2023-06-18T22:12:29.725Z,22.73
2023-06-18T22:14:32.096Z,26.08
2023-06-18T22:16:34.611Z,25.85
2023-06-18T22:18:37.862Z,23.58
2023-06-18T22:20:40.040Z,23.95
2023-06-18T22:22:43.649Z,27.38
2023-06-18T22:24:47.432Z,27.55
2023-06-18T22:26:59.536Z,27.60
2023-06-18T22:29:01.852Z,28.60
2023-06-18T22:31:04.063Z,28.02
2023-06-18T22:33:06.343Z,30.27
2023-06-18T22:35:09.019Z,30.15
2023-06-18T22:37:12.052Z,29.92
2023-06-18T22:39:15.277Z,30.98
2023-06-18T22:41:17.498Z,34.30
2023-06-18T22:43:19.762Z,34.78
2023-06-18T22:45:22.946Z,30.25
2023-06-18T22:47:25.229Z,28.92
2023-06-18T22:49:27.575Z,32.22
2023-06-18T22:51:29.809Z,32.58
2023-06-18T22:53:32.687Z,32.03
2023-06-18T22:55:35.048Z,35.20
2023-06-18T22:57:37.306Z,32.90
2023-06-18T22:59:39.382Z,30.38
2023-06-18T23:01:41.654Z,32.70
2023-06-18T23:03:44.180Z,31.17
2023-06-18T23:05:46.313Z,36.78
2023-06-18T23:07:48.549Z,39.75
2023-06-18T23:09:50.673Z,31.45
2023-06-18T23:11:53.671Z,32.53
2023-06-18T23:13:55.986Z,30.80
2023-06-18T23:15:58.139Z,33.38
2023-06-18T23:18:02.755Z,29.65
2023-06-18T23:20:05.915Z,34.00
2023-06-18T23:22:10.153Z,31.88
2023-06-18T23:24:12.827Z,34.28
2023-06-18T23:26:15.516Z,32.55
2023-06-18T23:28:17.796Z,30.42
2023-06-18T23:30:20.641Z,31.73
2023-06-18T23:32:22.833Z,30.20
2023-06-18T23:34:27.636Z,31.50
2023-06-18T23:36:30.067Z,32.90
2023-06-18T23:38:32.214Z,30.02
2023-06-18T23:40:34.494Z,31.38
2023-06-18T23:42:37.716Z,33.28
2023-06-18T23:44:39.902Z,34.05
2023-06-18T23:46:42.023Z,33.92
2023-06-18T23:48:44.198Z,32.92
2023-06-18T23:50:46.292Z,34.55
2023-06-18T23:52:48.422Z,39.10
2023-06-18T23:54:50.615Z,33.42
2023-06-18T23:56:53.333Z,31.52
2023-06-18T23:58:55.544Z,36.20
